x

Long Key, Fl (lonf1) Weather Station

6:00am - Mon 2nd Mar 2015 All times are CST. -5 hours from GMT.

  • Wind
    15mph, 17mph gusts
  • Sea Temp 77°f
  • Air Temp 75°f
  • Sea Pressure 1023.8mb
  • Long Key, Fl
  • Long Key, Fl

More Historic Weather Station data

Upgrade to MSW Pro to gain access to the past 30 days of data for over 8000 Wavebouys and Weather Stations around the globe.

Join Pro

Comparision Forecast

View Surf forecast
   
Mon 03/02 6:00am 15 17 mph 1023.8mb 77f 75f
5:00am 17 20 mph 1023.6mb 77f 75f
4:00am 15 17 mph 1023.4mb 77f 75f
3:00am 17 18 mph 1023.5mb 77f 75f
2:00am 18 22 mph 1024.2mb 77f 75f
1:00am 20 22 mph 1024.7mb 77f 76f
12:00am 18 20 mph 1025.3mb 77f 75f
Sun 03/01 11:00pm 23 24 mph 1025.5mb 77f 76f
10:00pm 20 23 mph 1025.6mb 78f 76f
9:00pm 20 23 mph 1025.4mb 78f 76f
8:00pm 21 23 mph 1024.9mb 78f 76f
7:00pm 21 23 mph 1024.4mb 78f 76f
6:00pm 18 21 mph 1024.3mb 78f 76f
5:00pm 18 21 mph 1024.3mb 79f 77f
4:00pm 15 17 mph 1023.9mb 79f 76f
3:00pm 17 20 mph 1024.2mb 78f 77f
2:00pm 18 21 mph 1024.6mb 78f 76f
1:00pm 16 20 mph 1025.5mb 78f 77f
12:00pm 16 20 mph 1026.1mb 77f 77f
11:00am 15 16 mph 1026.5mb 77f 77f
10:00am 16 17 mph 1026.5mb 76f 76f
9:00am 15 18 mph 1026.3mb 76f 76f
8:00am 16 18 mph 1025.8mb 76f 76f
7:00am 21 24 mph 1025.2mb 76f 75f
6:00am 21 23 mph 1024.5mb 76f 75f
5:00am 21 23 mph 1024.1mb 77f 76f
4:00am 18 21 mph 1023.9mb 77f 76f
3:00am 21 24 mph 1024mb 77f 76f
2:00am 20 21 mph 1024.3mb 77f 76f
1:00am 22 24 mph 1024.6mb 77f 76f
12:00am 22 24 mph 1025.1mb 77f 76f
Sat 02/28 11:00pm 21 23 mph 1025.2mb 77f 76f
10:00pm 21 22 mph 1025.1mb 77f 76f
9:00pm 21 23 mph 1024.6mb 77f 77f
8:00pm 17 20 mph 1024mb 78f 77f
7:00pm 16 17 mph 1023.6mb 78f 77f
6:00pm 16 17 mph 1023.1mb 78f 77f
5:00pm 9 13 mph 1022.8mb 78f 77f
4:00pm 10 14 mph 1022.5mb 78f 77f
3:00pm 14 15 mph 1022.8mb 78f 77f
2:00pm 14 16 mph 1023.1mb 78f 77f
1:00pm 10 13 mph 1024mb 77f 77f
12:00pm 14 16 mph 1024.5mb 76f 77f
11:00am 13 15 mph 1025.1mb 76f 77f
10:00am 13 15 mph 1024.7mb 76f 76f
9:00am 18 21 mph 1023.9mb 76f 76f
8:00am 15 17 mph 1023.4mb 76f 76f
7:00am 16 18 mph 1022.5mb 75f 76f
6:00am 18 20 mph 1021.7mb 75f 76f
5:00am 17 21 mph 1021.3mb 75f 75f
4:00am 17 18 mph 1020.9mb 75f 74f
3:00am 17 20 mph 1020.9mb 76f 72f
2:00am 17 21 mph 1021mb 76f 72f
1:00am 18 20 mph 1021.6mb 76f 73f
12:00am 20 21 mph 1021.5mb 76f 73f
Fri 02/27 11:00pm 20 22 mph 1021.9mb 76f 71f
10:00pm 18 21 mph 1022.1mb 76f 71f
9:00pm 23 26 mph 1021.3mb 77f 70f
8:00pm 23 26 mph 1020.4mb 77f 70f
7:00pm 22 25 mph 1019.7mb 77f 73f
6:00pm 16 17 mph 1018.9mb 78f 75f
5:00pm 10 11 mph 1018.7mb 78f 76f
4:00pm 2 3 mph 1018.6mb 77f 76f
3:00pm 5 7 mph 1019mb 77f 76f
2:00pm 7 8 mph 1019.4mb 76f 75f
1:00pm 9
mph
1019.9mb 76f 74f
12:00pm 8 9 mph 1020.5mb 75f 72f
11:00am 10 13 mph 1020.6mb 75f 71f
10:00am 11 13 mph 1020.5mb 75f 69f
9:00am 13 14 mph 1020mb 75f 70f
8:00am 14 15 mph 1019.1mb 75f 71f
7:00am 13 14 mph 1018mb 75f 71f
6:00am 15 16 mph 1017mb 75f 71f
5:00am 15 17 mph 1016.4mb 75f 72f
4:00am 15 17 mph 1016.1mb 75f 72f
3:00am 3 9 mph 1016.2mb 76f 75f
2:00am 1 2 mph 1016.2mb 76f 75f
1:00am  -  mph 1016.3mb 76f 75f
12:00am 2 3 mph 1016.6mb 76f 76f
Thu 02/26 11:00pm  -  mph 1016.7mb 76f 76f
10:00pm 2 5 mph 1016.3mb 76f 75f
9:00pm 5
mph
1015.9mb 76f 75f
8:00pm 5 6 mph 1015.2mb 76f 74f
7:00pm 6 7 mph 1014.3mb 76f 75f
6:00pm 7 8 mph 1013.8mb 76f 77f
5:00pm 5 6 mph 1013.4mb 76f 77f
4:00pm 10 11 mph 1012.7mb 76f 77f
3:00pm 6 7 mph 1012.5mb 75f 76f
2:00pm 15 17 mph 1012.6mb 75f 76f
1:00pm 14 17 mph 1013.1mb 75f 76f